Time;durP1;ratioP1;P1;durP2;ratioP2;P2;SDS_P1;SDS_P2;PMS_P1;PMS_P2;Temp;Humidity;BMP_temperature;BMP_pressure;BME280_temperature;BME280_humidity;BME280_pressure;Samples;Min_cycle;Max_cycle;Signal;HPM_P1;HPM_P2
2022/08/17 00:01:00;;;;;;;3.40;1.33;;;15.00;55.90;;;;;;5013295;28;20180;-83
2022/08/17 00:03:31;;;;;;;1.93;1.40;;;15.10;56.00;;;;;;5047109;28;20259;-82
2022/08/17 00:06:00;;;;;;;4.63;1.60;;;15.20;56.30;;;;;;5043157;28;20185;-77
2022/08/17 00:08:33;;;;;;;3.17;1.60;;;15.40;56.10;;;;;;5041553;28;20206;-77
2022/08/17 00:11:04;;;;;;;4.23;1.97;;;15.60;55.60;;;;;;5039833;28;20587;-82
2022/08/17 00:13:35;;;;;;;4.90;1.60;;;15.80;54.80;;;;;;5052503;28;20222;-79
2022/08/17 00:16:07;;;;;;;1.60;1.30;;;15.80;54.20;;;;;;5047003;28;20337;-75
2022/08/17 00:18:35;;;;;;;2.57;1.40;;;15.90;54.10;;;;;;5034684;28;20188;-77
2022/08/17 00:21:05;;;;;;;3.37;1.30;;;16.00;53.50;;;;;;5027790;28;20235;-78
2022/08/17 00:23:33;;;;;;;6.80;1.47;;;15.90;54.30;;;;;;5027912;28;20183;-76
2022/08/17 00:26:02;;;;;;;3.10;1.50;;;16.20;54.10;;;;;;5028792;28;20269;-78
2022/08/17 00:28:29;;;;;;;4.87;1.50;;;16.20;53.70;;;;;;5052142;28;20236;-84
2022/08/17 00:30:58;;;;;;;1.80;1.30;;;16.20;53.60;;;;;;5037505;28;20255;-77
2022/08/17 00:33:28;;;;;;;3.33;2.07;;;16.30;53.10;;;;;;5034027;28;20176;-79
2022/08/17 00:35:57;;;;;;;2.23;1.40;;;16.50;53.60;;;;;;5039025;28;20569;-82
2022/08/17 00:38:25;;;;;;;2.10;1.50;;;16.60;53.10;;;;;;5044076;28;20478;-78
2022/08/17 00:41:00;;;;;;;1.50;1.30;;;16.80;52.20;;;;;;5044730;28;20665;-80
2022/08/17 00:43:31;;;;;;;1.20;1.10;;;16.80;52.30;;;;;;5025200;28;20183;-80
2022/08/17 00:46:01;;;;;;;1.70;1.23;;;16.90;52.30;;;;;;5044491;28;20551;-80
2022/08/17 00:48:29;;;;;;;1.47;1.20;;;17.10;51.50;;;;;;5018374;28;20183;-83
2022/08/17 00:50:58;;;;;;;2.00;1.23;;;17.20;51.50;;;;;;5031468;28;20204;-76
2022/08/17 00:53:30;;;;;;;1.60;1.13;;;17.30;50.30;;;;;;5038822;28;20544;-81
2022/08/17 00:56:00;;;;;;;1.90;1.27;;;17.30;50.70;;;;;;5039223;28;20277;-85
2022/08/17 00:58:29;;;;;;;1.67;1.10;;;17.50;50.00;;;;;;5034924;28;20187;-82
2022/08/17 01:00:56;;;;;;;2.57;1.30;;;17.60;50.10;;;;;;5043902;28;20191;-82
2022/08/17 01:03:25;;;;;;;1.07;1.00;;;17.70;50.00;;;;;;5039308;28;20576;-81
2022/08/17 01:05:57;;;;;;;1.77;1.00;;;17.70;48.90;;;;;;5043616;28;20266;-81
2022/08/17 01:08:28;;;;;;;4.47;1.30;;;17.70;50.00;;;;;;5055686;28;20180;-82
2022/08/17 01:11:00;;;;;;;1.13;1.03;;;17.70;49.40;;;;;;5050092;28;20182;-81
2022/08/17 01:13:33;;;;;;;2.07;1.10;;;17.70;49.50;;;;;;5032821;28;20201;-82
2022/08/17 01:16:07;;;;;;;1.57;1.30;;;17.90;49.70;;;;;;5037994;28;20259;-81
2022/08/17 01:18:35;;;;;;;1.73;1.00;;;17.80;48.60;;;;;;5048668;28;20541;-83
2022/08/17 01:21:18;;;;;;;2.30;1.27;;;18.10;48.80;;;;;;5041221;28;20184;-83
2022/08/17 01:23:45;;;;;;;4.30;1.20;;;18.30;48.80;;;;;;5034631;28;20577;-81
2022/08/17 01:26:12;;;;;;;2.70;0.90;;;18.30;47.90;;;;;;5038722;28;20184;-78
2022/08/17 01:28:40;;;;;;;1.87;0.93;;;18.30;48.00;;;;;;5045940;28;20259;-80
2022/08/17 01:31:09;;;;;;;1.53;0.87;;;18.50;47.20;;;;;;5042164;28;20184;-84
2022/08/17 01:33:37;;;;;;;1.20;1.10;;;18.40;47.60;;;;;;5036622;28;20284;-83
2022/08/17 01:36:06;;;;;;;1.30;1.00;;;18.40;47.50;;;;;;5046717;28;20239;-82
2022/08/17 01:38:35;;;;;;;2.07;1.20;;;18.70;47.20;;;;;;5045066;28;20182;-81
2022/08/17 01:41:13;;;;;;;1.33;1.00;;;18.70;46.70;;;;;;5054322;28;20180;-82
2022/08/17 01:43:46;;;;;;;4.67;1.10;;;18.80;46.80;;;;;;5037336;28;20666;-82
2022/08/17 01:46:28;;;;;;;2.00;1.00;;;19.20;45.90;;;;;;5038208;28;20199;-82
2022/08/17 01:48:56;;;;;;;0.80;0.80;;;19.10;46.20;;;;;;5033803;28;20575;-85
2022/08/17 01:51:29;;;;;;;1.27;0.97;;;19.30;46.10;;;;;;5039333;28;20271;-80
2022/08/17 01:54:01;;;;;;;2.47;1.10;;;19.70;44.70;;;;;;5042172;28;20208;-83
2022/08/17 01:56:31;;;;;;;2.07;1.27;;;20.00;43.80;;;;;;5046174;28;20208;-84
2022/08/17 01:58:59;;;;;;;4.47;1.30;;;20.30;43.70;;;;;;5019632;28;20264;-83
2022/08/17 02:01:32;;;;;;;5.07;1.40;;;19.90;44.70;;;;;;5045277;28;20190;-84
2022/08/17 02:04:00;;;;;;;4.73;1.20;;;19.80;45.80;;;;;;5053688;28;20164;-84
2022/08/17 02:06:28;;;;;;;2.70;1.30;;;20.10;44.90;;;;;;5047909;28;20725;-90
2022/08/17 02:08:56;;;;;;;1.87;1.00;;;20.30;43.80;;;;;;5050527;28;20587;-84
2022/08/17 02:11:24;;;;;;;6.60;2.40;;;20.30;44.00;;;;;;5028004;28;20265;-84
2022/08/17 02:13:52;;;;;;;4.17;1.43;;;20.80;43.40;;;;;;5033748;28;20181;-84
2022/08/17 02:16:19;;;;;;;4.13;1.40;;;20.80;43.20;;;;;;5037489;28;20207;-81
2022/08/17 02:18:47;;;;;;;5.47;2.20;;;20.70;43.80;;;;;;5035278;28;20176;-86
2022/08/17 02:21:14;;;;;;;3.00;1.30;;;20.60;44.10;;;;;;5033021;28;20212;-87
2022/08/17 02:23:46;;;;;;;4.50;1.13;;;20.90;43.40;;;;;;5028666;28;20647;-88
2022/08/17 02:26:14;;;;;;;4.57;1.10;;;21.10;42.30;;;;;;5034868;28;20176;-84
2022/08/17 02:28:41;;;;;;;2.97;1.00;;;21.00;42.40;;;;;;5037924;28;20603;-83
2022/08/17 02:31:11;;;;;;;3.53;1.33;;;21.00;42.50;;;;;;5038409;28;20188;-86
2022/08/17 02:33:40;;;;;;;4.20;1.13;;;21.10;42.20;;;;;;5053926;28;20179;-81
2022/08/17 02:36:07;;;;;;;3.07;1.17;;;21.30;42.20;;;;;;5054549;28;20211;-79
2022/08/17 02:38:36;;;;;;;3.67;1.10;;;20.90;42.80;;;;;;5054618;28;20611;-82
2022/08/17 02:41:03;;;;;;;3.53;1.17;;;21.40;42.40;;;;;;5036473;28;20188;-83
2022/08/17 02:43:34;;;;;;;3.03;1.10;;;21.60;41.90;;;;;;5037197;28;20511;-91
2022/08/17 02:46:05;;;;;;;1.77;1.00;;;21.80;41.40;;;;;;5039615;28;20191;-88
2022/08/17 02:48:44;;;;;;;3.13;0.93;;;21.00;42.30;;;;;;5027348;28;20173;-87
2022/08/17 02:51:15;;;;;;;1.97;1.20;;;21.20;42.60;;;;;;5032123;28;20181;-85
2022/08/17 02:53:46;;;;;;;5.40;1.30;;;21.50;42.80;;;;;;5034491;28;20176;-88
2022/08/17 02:56:14;;;;;;;3.30;1.00;;;21.60;42.30;;;;;;5031660;28;20649;-82
2022/08/17 02:58:52;;;;;;;6.97;1.23;;;21.60;42.40;;;;;;5042956;28;20263;-86
2022/08/17 03:01:22;;;;;;;2.93;0.90;;;21.50;42.10;;;;;;5047770;28;20214;-86
2022/08/17 03:03:50;;;;;;;3.07;1.00;;;21.20;42.60;;;;;;5049310;28;20192;-89
2022/08/17 03:06:23;;;;;;;4.63;1.13;;;21.70;42.00;;;;;;5037575;28;20192;-82
2022/08/17 03:08:51;;;;;;;5.93;3.83;;;21.90;41.40;;;;;;5042744;28;20199;-83
2022/08/17 03:11:18;;;;;;;8.43;5.03;;;21.80;41.30;;;;;;5020404;28;20177;-80
2022/08/17 03:13:45;;;;;;;7.60;1.33;;;22.30;40.90;;;;;;5032283;28;20196;-80
2022/08/17 03:16:13;;;;;;;1.67;0.97;;;22.00;41.80;;;;;;5030225;28;20295;-83
2022/08/17 03:18:40;;;;;;;3.50;1.40;;;21.90;41.70;;;;;;5026381;28;20635;-86
2022/08/17 03:21:08;;;;;;;4.40;1.00;;;22.00;40.60;;;;;;5032939;28;20226;-80
2022/08/17 03:23:42;;;;;;;4.87;2.43;;;21.80;41.20;;;;;;5039172;28;20555;-83
2022/08/17 03:26:31;;;;;;;4.97;2.47;;;22.10;41.20;;;;;;5033024;28;20746;-85
2022/08/17 03:28:58;;;;;;;5.60;1.53;;;22.30;40.80;;;;;;5039146;28;20181;-88
2022/08/17 03:31:30;;;;;;;3.70;1.03;;;22.10;41.00;;;;;;5034450;28;20191;-83
2022/08/17 03:33:57;;;;;;;2.67;1.17;;;22.30;41.00;;;;;;5032304;28;20188;-85
2022/08/17 03:36:25;;;;;;;6.37;1.23;;;23.20;39.00;;;;;;5028046;28;20216;-86
2022/08/17 03:38:52;;;;;;;2.90;1.00;;;23.30;39.00;;;;;;5029167;28;20263;-84
2022/08/17 03:41:21;;;;;;;3.20;1.17;;;23.30;38.20;;;;;;5033146;28;20211;-84
2022/08/17 03:43:49;;;;;;;5.63;1.80;;;23.60;38.30;;;;;;5035178;28;20657;-87
2022/08/17 03:57:39;;;;;;;9.70;1.23;;;23.20;38.40;;;;;;5044099;28;20293;-87
2022/08/17 04:00:07;;;;;;;3.07;1.23;;;23.60;37.30;;;;;;5039656;28;20184;-87
2022/08/17 04:02:35;;;;;;;4.63;0.93;;;23.30;38.00;;;;;;5031517;28;20216;-89
2022/08/17 04:05:06;;;;;;;5.43;0.97;;;24.00;37.50;;;;;;5041430;28;20245;-83
2022/08/17 04:07:34;;;;;;;2.63;1.00;;;23.70;36.70;;;;;;5030598;28;20634;-87
2022/08/17 04:10:05;;;;;;;1.63;0.90;;;24.10;36.80;;;;;;5040721;28;20192;-89
2022/08/17 04:12:45;;;;;;;3.70;1.53;;;24.50;36.40;;;;;;5031110;28;20188;-82
2022/08/17 04:15:12;;;;;;;2.13;0.90;;;24.30;35.60;;;;;;5025113;28;20239;-81
2022/08/17 04:17:40;;;;;;;4.03;0.97;;;24.20;36.50;;;;;;5029220;28;20232;-82
2022/08/17 04:20:08;;;;;;;1.40;0.77;;;24.60;35.30;;;;;;5016404;28;20638;-81
2022/08/17 04:22:36;;;;;;;3.67;0.90;;;24.70;34.60;;;;;;5026946;28;20208;-84
2022/08/17 04:25:15;;;;;;;6.23;1.43;;;24.60;35.10;;;;;;5027190;28;20303;-83
2022/08/17 04:27:42;;;;;;;6.67;1.20;;;24.80;35.20;;;;;;5023888;28;20546;-84
2022/08/17 04:30:10;;;;;;;4.27;1.30;;;24.90;34.90;;;;;;5030086;28;20188;-81
2022/08/17 04:32:59;;;;;;;5.23;1.47;;;24.90;34.40;;;;;;5025127;28;20188;-82
2022/08/17 04:35:30;;;;;;;3.03;1.10;;;25.00;35.20;;;;;;5026956;28;20608;-82
2022/08/17 04:37:58;;;;;;;2.40;0.90;;;25.20;35.10;;;;;;5034304;28;20212;-83
2022/08/17 04:43:16;;;;;;;3.40;1.07;;;25.20;34.80;;;;;;5037372;28;20190;-82
2022/08/17 04:45:56;;;;;;;4.07;1.20;;;25.30;34.60;;;;;;5038027;28;20532;-79
2022/08/17 04:48:27;;;;;;;3.83;1.37;;;25.40;33.80;;;;;;5033905;28;20184;-83
2022/08/17 04:50:55;;;;;;;2.03;1.30;;;25.30;34.20;;;;;;5035801;28;20181;-77
2022/08/17 04:53:22;;;;;;;4.10;1.40;;;25.50;34.00;;;;;;5035222;28;20184;-82
2022/08/17 04:55:52;;;;;;;3.07;1.10;;;25.80;33.90;;;;;;5031023;28;20208;-80
2022/08/17 04:58:20;;;;;;;5.47;1.10;;;26.30;33.90;;;;;;5033604;28;20276;-81
2022/08/17 05:00:47;;;;;;;3.63;1.07;;;26.10;34.00;;;;;;5035704;28;20184;-83
2022/08/17 05:03:15;;;;;;;3.07;1.10;;;26.00;34.40;;;;;;5035269;28;20264;-81
2022/08/17 05:05:48;;;;;;;3.53;1.20;;;25.80;34.40;;;;;;5034150;28;20665;-79
2022/08/17 05:08:17;;;;;;;6.97;1.50;;;25.70;34.60;;;;;;5031694;28;20282;-80
2022/08/17 05:10:45;;;;;;;4.43;1.23;;;25.00;35.80;;;;;;5034773;28;20257;-82
2022/08/17 05:13:16;;;;;;;1.43;0.97;;;25.10;35.60;;;;;;5034650;28;20280;-83
2022/08/17 05:15:44;;;;;;;2.73;1.07;;;24.70;35.90;;;;;;5031922;28;20215;-81
2022/08/17 05:18:12;;;;;;;3.87;1.03;;;25.00;35.80;;;;;;5034812;28;20242;-82
2022/08/17 05:20:40;;;;;;;5.13;1.13;;;24.60;37.00;;;;;;5040324;28;20179;-76
2022/08/17 05:23:11;;;;;;;5.43;1.60;;;25.20;35.80;;;;;;5031905;28;20587;-85
2022/08/17 05:25:42;;;;;;;4.43;0.90;;;24.60;36.40;;;;;;5034913;28;20184;-83
2022/08/17 05:28:10;;;;;;;5.53;1.23;;;24.70;37.00;;;;;;5038111;28;20197;-83
2022/08/17 05:30:39;;;;;;;6.33;1.50;;;25.00;36.90;;;;;;5035421;28;20540;-81
2022/08/17 05:33:18;;;;;;;2.63;0.97;;;25.60;35.30;;;;;;5026890;28;20188;-84
2022/08/17 05:35:50;;;;;;;3.03;0.90;;;25.30;36.20;;;;;;5033313;28;20203;-80
2022/08/17 05:38:19;;;;;;;2.83;1.00;;;25.50;35.60;;;;;;5035075;28;20196;-83
2022/08/17 05:40:47;;;;;;;7.23;1.30;;;25.90;35.60;;;;;;5038250;28;20242;-81
2022/08/17 05:43:18;;;;;;;4.27;1.30;;;25.80;36.00;;;;;;5037115;28;20200;-82
2022/08/17 05:46:10;;;;;;;3.60;0.90;;;25.80;35.90;;;;;;5034210;28;20553;-80
2022/08/17 05:48:44;;;;;;;4.33;1.10;;;26.00;35.40;;;;;;5028497;28;20196;-83
2022/08/17 05:51:39;;;;;;;2.67;1.10;;;26.30;34.40;;;;;;5032377;28;20184;-82
2022/08/17 05:54:27;;;;;;;4.87;1.20;;;25.80;35.50;;;;;;5030856;28;20192;-80
2022/08/17 05:57:28;;;;;;;2.43;1.30;;;25.80;35.00;;;;;;5034381;28;20208;-80
2022/08/17 06:00:11;;;;;;;4.30;1.13;;;25.80;35.60;;;;;;5024701;28;20718;-84
2022/08/17 06:02:52;;;;;;;5.53;1.33;;;25.60;36.30;;;;;;5034878;28;20194;-83
2022/08/17 06:05:54;;;;;;;6.80;1.00;;;25.40;36.60;;;;;;5029801;28;20172;-83
2022/08/17 06:08:37;;;;;;;2.70;1.20;;;25.30;36.70;;;;;;5047198;28;20650;-82
2022/08/17 06:11:29;;;;;;;3.40;1.30;;;25.30;36.10;;;;;;5047702;28;20244;-82
2022/08/17 06:14:12;;;;;;;2.87;1.30;;;24.50;37.20;;;;;;5048634;28;20180;-81
2022/08/17 06:16:44;;;;;;;2.73;1.00;;;24.50;37.70;;;;;;5053305;28;20294;-77
2022/08/17 06:19:15;;;;;;;3.97;1.13;;;24.70;37.40;;;;;;5035432;28;20208;-84
2022/08/17 06:21:45;;;;;;;3.47;1.20;;;24.20;38.10;;;;;;5048404;28;20184;-81
2022/08/17 06:24:46;;;;;;;6.27;1.37;;;22.70;41.00;;;;;;5050073;28;20535;-81
2022/08/17 06:27:18;;;;;;;4.20;1.30;;;22.20;42.90;;;;;;5041732;28;20200;-82
2022/08/17 06:29:52;;;;;;;3.23;1.20;;;21.80;44.10;;;;;;5042011;28;20545;-83
2022/08/17 06:32:20;;;;;;;2.30;1.00;;;21.20;45.30;;;;;;5046582;28;20194;-80
2022/08/17 06:34:47;;;;;;;3.40;1.00;;;20.50;47.30;;;;;;5027737;28;20213;-80
2022/08/17 06:37:53;;;;;;;8.40;1.67;;;20.20;48.70;;;;;;5035998;28;20184;-82
2022/08/17 06:40:39;;;;;;;7.90;1.47;;;19.60;50.30;;;;;;5037697;28;20216;-81
2022/08/17 06:43:47;;;;;;;6.53;1.30;;;19.30;51.30;;;;;;5031688;28;20185;-81
2022/08/17 06:46:53;;;;;;;3.50;1.53;;;19.30;51.20;;;;;;5035007;28;20191;-80
2022/08/17 06:49:46;;;;;;;2.73;1.43;;;18.80;52.20;;;;;;5029859;28;20183;-78
2022/08/17 06:52:21;;;;;;;3.57;1.50;;;18.70;53.00;;;;;;5044055;28;20219;-82
2022/08/17 06:55:06;;;;;;;3.83;1.50;;;18.60;53.70;;;;;;5032747;28;20183;-83
2022/08/17 06:57:42;;;;;;;4.07;1.37;;;18.60;54.40;;;;;;5041580;28;20187;-81
2022/08/17 07:00:17;;;;;;;5.90;1.63;;;18.30;54.70;;;;;;5033592;28;20631;-82
2022/08/17 07:03:14;;;;;;;8.53;1.67;;;18.30;55.40;;;;;;5032545;28;20183;-82
2022/08/17 07:05:54;;;;;;;3.03;1.57;;;18.00;56.30;;;;;;5024081;28;20651;-81
2022/08/17 07:09:00;;;;;;;3.13;1.50;;;17.90;56.90;;;;;;5037770;28;20218;-83
2022/08/17 07:11:32;;;;;;;3.27;1.30;;;17.70;57.60;;;;;;5015584;28;20239;-81
2022/08/17 07:14:22;;;;;;;3.87;1.53;;;17.50;58.40;;;;;;5023005;28;20536;-82
2022/08/17 07:16:52;;;;;;;4.80;1.30;;;17.30;59.20;;;;;;5039483;28;20212;-79
2022/08/17 07:19:23;;;;;;;5.53;1.33;;;17.30;60.00;;;;;;5032930;28;20533;-80
2022/08/17 07:22:05;;;;;;;2.07;1.10;;;17.20;60.50;;;;;;5039654;28;20732;-80
2022/08/17 07:24:36;;;;;;;6.10;1.97;;;17.10;60.90;;;;;;5050635;28;20715;-78
2022/08/17 07:27:32;;;;;;;4.73;1.97;;;17.00;61.70;;;;;;5040941;28;20268;-83
2022/08/17 07:30:08;;;;;;;6.80;1.50;;;16.80;62.10;;;;;;5035814;28;20191;-83
2022/08/17 07:32:58;;;;;;;4.43;1.40;;;16.80;62.30;;;;;;5036475;28;20183;-81
2022/08/17 07:35:28;;;;;;;5.17;1.97;;;16.70;62.00;;;;;;5032954;28;20197;-81
2022/08/17 07:38:10;;;;;;;5.47;1.67;;;16.60;62.60;;;;;;5025435;28;20208;-81
2022/08/17 07:41:05;;;;;;;2.33;1.30;;;16.60;62.90;;;;;;5035582;28;20233;-81
2022/08/17 07:43:51;;;;;;;5.67;1.50;;;16.60;63.00;;;;;;5023513;28;20200;-81
2022/08/17 07:49:08;;;;;;;5.47;1.50;;;16.50;63.70;;;;;;5039444;28;20217;-81
2022/08/17 07:51:44;;;;;;;3.37;1.30;;;16.50;64.00;;;;;;5032786;28;20194;-81
2022/08/17 07:54:23;;;;;;;5.90;1.97;;;16.30;64.50;;;;;;5024222;28;20643;-82
2022/08/17 07:56:58;;;;;;;5.77;1.50;;;16.30;65.30;;;;;;5052975;28;20222;-81
2022/08/17 07:59:32;;;;;;;7.60;1.67;;;16.20;65.60;;;;;;5040709;28;20636;-82
2022/08/17 08:02:05;;;;;;;6.50;1.77;;;16.10;65.70;;;;;;5050492;28;20187;-83
2022/08/17 08:04:39;;;;;;;5.83;1.63;;;16.20;65.90;;;;;;5048610;28;20185;-84
2022/08/17 08:07:25;;;;;;;9.03;1.60;;;16.10;66.30;;;;;;5035608;28;20226;-83
2022/08/17 08:10:05;;;;;;;2.97;1.50;;;16.00;66.90;;;;;;5041708;28;20175;-84
2022/08/17 08:12:39;;;;;;;9.80;1.97;;;16.00;67.00;;;;;;5049021;28;20212;-83
2022/08/17 08:15:24;;;;;;;8.60;3.37;;;16.00;67.60;;;;;;5056811;28;20183;-83
2022/08/17 08:18:01;;;;;;;8.10;2.47;;;15.90;67.40;;;;;;5031601;28;20184;-83
2022/08/17 08:21:00;;;;;;;9.70;3.03;;;15.80;67.70;;;;;;5047110;28;20213;-82
2022/08/17 08:23:38;;;;;;;5.80;1.70;;;15.70;68.00;;;;;;5044021;28;20460;-84
2022/08/17 08:26:26;;;;;;;5.63;1.83;;;15.70;68.40;;;;;;5057578;28;20637;-83
2022/08/17 08:29:07;;;;;;;8.60;2.40;;;15.60;68.80;;;;;;5033838;28;20226;-81
2022/08/17 08:31:58;;;;;;;11.07;3.03;;;15.50;69.20;;;;;;5038747;28;20186;-85
2022/08/17 08:34:37;;;;;;;5.13;3.00;;;15.50;70.20;;;;;;5035681;28;20188;-81
2022/08/17 08:37:27;;;;;;;7.07;3.33;;;15.50;70.10;;;;;;5056127;28;20215;-81
2022/08/17 08:39:58;;;;;;;10.67;4.07;;;15.50;70.30;;;;;;5057814;28;20276;-84
2022/08/17 08:43:13;;;;;;;11.60;4.37;;;15.40;70.30;;;;;;5033600;28;20274;-85
2022/08/17 08:46:06;;;;;;;7.87;4.10;;;15.40;70.70;;;;;;5023351;28;20193;-83
2022/08/17 08:48:42;;;;;;;11.57;3.63;;;15.30;70.50;;;;;;5033631;28;20639;-84
2022/08/17 08:51:19;;;;;;;9.27;3.37;;;15.20;71.00;;;;;;5024777;28;20189;-84
2022/08/17 08:53:50;;;;;;;6.30;3.30;;;15.20;71.20;;;;;;5037349;28;20245;-83
2022/08/17 08:56:50;;;;;;;4.47;2.70;;;15.20;71.40;;;;;;5026745;28;20226;-84
2022/08/17 08:59:33;;;;;;;7.17;3.20;;;15.10;71.50;;;;;;5023373;28;20209;-82
2022/08/17 09:02:38;;;;;;;9.10;3.00;;;15.00;72.20;;;;;;5043816;28;20217;-81
2022/08/17 09:05:28;;;;;;;8.97;2.60;;;15.00;72.60;;;;;;5038570;28;20206;-82
2022/08/17 09:08:15;;;;;;;10.97;2.83;;;15.10;72.40;;;;;;5034712;28;20186;-81
2022/08/17 09:10:55;;;;;;;6.30;3.03;;;15.00;72.50;;;;;;5015798;28;20171;-81
2022/08/17 09:13:31;;;;;;;6.73;3.03;;;15.00;72.90;;;;;;5039146;28;20190;-80
2022/08/17 09:16:16;;;;;;;7.57;2.77;;;14.90;73.00;;;;;;5048792;28;20240;-82
2022/08/17 09:18:50;;;;;;;8.30;2.90;;;14.90;73.30;;;;;;5033413;28;20185;-81
2022/08/17 09:21:36;;;;;;;8.60;3.23;;;14.80;73.40;;;;;;5054831;28;20193;-81
2022/08/17 09:24:53;;;;;;;6.97;2.30;;;14.80;73.60;;;;;;5039638;28;20189;-82
2022/08/17 09:27:56;;;;;;;8.60;3.13;;;14.80;73.80;;;;;;5006426;28;20934;-82
2022/08/17 09:30:25;;;;;;;6.20;3.27;;;14.80;73.90;;;;;;5019156;28;20169;-81
2022/08/17 09:33:05;;;;;;;7.57;3.33;;;14.80;74.30;;;;;;5029390;28;20231;-81
2022/08/17 09:35:43;;;;;;;6.83;2.87;;;14.70;74.40;;;;;;5039317;28;20239;-81
2022/08/17 09:38:40;;;;;;;7.90;3.33;;;14.60;74.70;;;;;;5022667;28;20670;-82
2022/08/17 09:41:40;;;;;;;10.80;4.73;;;14.60;75.10;;;;;;5039145;28;20193;-80
2022/08/17 09:44:42;;;;;;;8.47;4.60;;;14.50;75.00;;;;;;5053409;28;20233;-80
2022/08/17 09:47:29;;;;;;;10.07;5.93;;;14.40;75.30;;;;;;5029626;28;20185;-81
2022/08/17 09:50:28;;;;;;;13.53;5.43;;;14.30;75.40;;;;;;5046470;28;20586;-81
2022/08/17 09:52:58;;;;;;;11.43;4.40;;;14.30;75.70;;;;;;5031753;28;20523;-83
2022/08/17 09:55:37;;;;;;;9.20;4.60;;;14.20;76.00;;;;;;5048366;28;20204;-83
2022/08/17 09:58:32;;;;;;;12.30;5.00;;;14.20;76.20;;;;;;5043256;28;20228;-82
2022/08/17 10:01:44;;;;;;;11.37;5.20;;;14.20;76.50;;;;;;5029999;28;20527;-84
2022/08/17 10:04:20;;;;;;;14.07;5.60;;;14.20;76.90;;;;;;5045002;28;20252;-80
2022/08/17 10:07:03;;;;;;;10.77;5.17;;;14.10;76.80;;;;;;5032083;28;20580;-81
2022/08/17 10:10:01;;;;;;;16.57;5.27;;;14.10;77.10;;;;;;5042045;28;20631;-81
2022/08/17 10:12:38;;;;;;;12.03;4.60;;;14.10;77.10;;;;;;5038860;28;20211;-83
2022/08/17 10:15:33;;;;;;;21.30;5.53;;;14.10;77.30;;;;;;5027739;28;20533;-81
2022/08/17 10:18:44;;;;;;;10.33;5.47;;;14.10;77.20;;;;;;5034114;28;20186;-81
2022/08/17 10:26:57;;;;;;;14.27;5.67;;;14.00;77.50;;;;;;5050887;28;20203;-84
2022/08/17 10:29:42;;;;;;;14.00;5.87;;;13.90;77.50;;;;;;5037183;28;20705;-83
2022/08/17 10:32:13;;;;;;;12.87;7.27;;;13.80;77.90;;;;;;5021524;28;20191;-83
2022/08/17 10:35:34;;;;;;;12.30;7.23;;;13.80;78.20;;;;;;5043176;28;20183;-84
2022/08/17 10:38:19;;;;;;;14.80;6.87;;;13.70;78.20;;;;;;4992198;28;22196;-82
2022/08/17 10:40:49;;;;;;;18.10;7.30;;;13.70;78.60;;;;;;4991719;28;20190;-82
2022/08/17 10:43:53;;;;;;;13.53;6.67;;;13.60;78.90;;;;;;5038193;28;20659;-82
2022/08/17 10:46:55;;;;;;;13.57;6.07;;;13.60;79.20;;;;;;5036044;28;20208;-83
2022/08/17 10:49:28;;;;;;;13.87;6.10;;;13.60;79.30;;;;;;5042467;28;20216;-83
2022/08/17 10:52:01;;;;;;;15.30;6.10;;;13.70;79.30;;;;;;5028180;28;20719;-80
2022/08/17 10:54:35;;;;;;;11.93;6.60;;;13.60;79.40;;;;;;5034859;28;20189;-84
2022/08/17 10:57:22;;;;;;;15.17;7.47;;;13.50;79.30;;;;;;5044113;28;20223;-84
2022/08/17 10:59:51;;;;;;;14.07;6.97;;;13.50;79.40;;;;;;5037765;28;20172;-83
2022/08/17 11:02:30;;;;;;;14.20;6.67;;;13.50;79.70;;;;;;5042006;28;20235;-84
2022/08/17 11:05:08;;;;;;;18.17;6.40;;;13.50;79.70;;;;;;5051944;28;20187;-83
2022/08/17 11:08:05;;;;;;;15.37;6.60;;;13.40;79.80;;;;;;5037304;28;20199;-84
2022/08/17 11:10:42;;;;;;;11.40;6.73;;;13.50;80.10;;;;;;5041925;28;20184;-84
2022/08/17 11:13:32;;;;;;;10.93;5.87;;;13.50;80.10;;;;;;5049560;28;20185;-83
2022/08/17 11:16:02;;;;;;;10.77;5.73;;;13.40;80.10;;;;;;5050124;28;20299;-83
2022/08/17 11:19:08;;;;;;;14.60;6.83;;;13.40;80.10;;;;;;5043360;28;20182;-82
2022/08/17 11:21:54;;;;;;;11.53;6.37;;;13.30;80.10;;;;;;5060443;28;20702;-84
2022/08/17 11:24:54;;;;;;;12.53;7.50;;;13.30;80.20;;;;;;5042244;28;20176;-83
2022/08/17 11:27:35;;;;;;;12.83;6.83;;;13.20;80.30;;;;;;5038903;28;20638;-83
2022/08/17 11:30:11;;;;;;;15.83;7.43;;;13.20;80.70;;;;;;5036144;28;20176;-81
2022/08/17 11:32:45;;;;;;;11.43;6.83;;;13.20;80.30;;;;;;5045099;28;22159;-81
2022/08/17 11:35:16;;;;;;;13.13;6.67;;;13.20;81.10;;;;;;5033095;28;20185;-83
2022/08/17 11:38:07;;;;;;;11.60;6.93;;;13.20;81.00;;;;;;5019538;28;20189;-84
2022/08/17 11:40:59;;;;;;;15.07;7.83;;;13.00;80.80;;;;;;5048502;28;20243;-83
2022/08/17 11:43:44;;;;;;;18.03;8.10;;;13.00;80.80;;;;;;5043404;28;20188;-83
2022/08/17 11:52:42;;;;;;;15.37;7.47;;;12.80;81.50;;;;;;5033405;28;20245;-82
2022/08/17 11:55:31;;;;;;;14.00;7.03;;;12.80;82.00;;;;;;5037629;28;20172;-84
2022/08/17 11:58:24;;;;;;;13.53;7.00;;;12.80;82.30;;;;;;5030543;28;20242;-82
2022/08/17 12:00:57;;;;;;;15.40;7.37;;;12.90;82.50;;;;;;5034771;28;20223;-84
2022/08/17 12:03:30;;;;;;;13.80;6.70;;;12.90;82.30;;;;;;5047907;28;20217;-83
2022/08/17 12:06:31;;;;;;;14.67;6.90;;;12.80;82.10;;;;;;5019464;28;20180;-84
2022/08/17 12:09:20;;;;;;;12.90;5.47;;;12.70;82.70;;;;;;5043257;28;20181;-83
2022/08/17 12:11:47;;;;;;;12.57;5.80;;;12.80;83.30;;;;;;5035568;28;20270;-83
2022/08/17 12:14:26;;;;;;;11.83;5.93;;;12.70;82.70;;;;;;5028784;28;20543;-82
2022/08/17 12:17:08;;;;;;;16.27;5.00;;;12.70;83.50;;;;;;5030809;28;20215;-82
2022/08/17 12:19:38;;;;;;;12.03;5.40;;;12.70;83.20;;;;;;5052381;28;20254;-82
2022/08/17 12:22:32;;;;;;;13.30;5.33;;;12.60;83.50;;;;;;5052239;28;20191;-83
2022/08/17 12:25:12;;;;;;;14.10;5.57;;;12.50;83.90;;;;;;5037901;28;20175;-83
2022/08/17 12:27:47;;;;;;;14.93;6.37;;;12.50;83.90;;;;;;5047777;28;20627;-82
2022/08/17 12:30:18;;;;;;;13.87;5.87;;;12.40;84.10;;;;;;5041096;28;20176;-83
2022/08/17 12:32:47;;;;;;;11.80;5.23;;;12.40;84.20;;;;;;5040606;28;20250;-84
2022/08/17 12:35:37;;;;;;;8.63;5.43;;;12.50;84.20;;;;;;5052184;28;20172;-83
2022/08/17 12:38:09;;;;;;;13.77;5.07;;;12.50;84.40;;;;;;5045769;28;20184;-83
2022/08/17 12:40:37;;;;;;;12.13;5.80;;;12.40;84.10;;;;;;5052412;28;20228;-83
2022/08/17 12:43:17;;;;;;;8.90;4.83;;;12.30;84.30;;;;;;5052301;28;20183;-84
2022/08/17 12:45:53;;;;;;;9.20;5.53;;;12.30;84.40;;;;;;5049053;28;20196;-83
2022/08/17 12:48:26;;;;;;;11.23;5.73;;;12.40;84.80;;;;;;5031976;28;20184;-83
2022/08/17 12:51:12;;;;;;;11.10;5.97;;;12.40;84.70;;;;;;5031030;28;20188;-84
2022/08/17 12:53:44;;;;;;;9.57;5.20;;;12.40;84.80;;;;;;5048977;28;20185;-82
2022/08/17 12:56:13;;;;;;;9.60;5.07;;;12.30;84.50;;;;;;5046263;28;20219;-81
2022/08/17 12:58:55;;;;;;;12.37;6.03;;;12.30;84.30;;;;;;5047063;28;20638;-80
2022/08/17 13:01:24;;;;;;;10.43;4.93;;;12.30;85.00;;;;;;5057198;28;20176;-82
2022/08/17 13:03:58;;;;;;;10.47;5.13;;;12.30;84.80;;;;;;5046900;28;20260;-81
2022/08/17 13:06:30;;;;;;;14.37;5.57;;;12.20;84.60;;;;;;5040012;28;20190;-83
2022/08/17 13:09:13;;;;;;;11.70;5.50;;;12.20;84.70;;;;;;5051540;28;20204;-84
2022/08/17 13:11:58;;;;;;;10.90;5.90;;;12.20;84.80;;;;;;5034245;28;20231;-84
2022/08/17 13:14:25;;;;;;;10.93;6.03;;;12.20;85.00;;;;;;5055322;28;20262;-84
2022/08/17 13:16:58;;;;;;;15.10;6.23;;;12.20;85.20;;;;;;5041091;28;20216;-83
2022/08/17 13:19:29;;;;;;;14.63;6.27;;;12.20;84.90;;;;;;5048980;28;20179;-81
2022/08/17 13:21:59;;;;;;;16.10;5.33;;;12.10;84.80;;;;;;5051537;28;20183;-83
2022/08/17 13:24:33;;;;;;;9.90;5.73;;;12.10;84.70;;;;;;5033627;28;20597;-80
2022/08/17 13:27:06;;;;;;;14.67;6.17;;;12.00;84.70;;;;;;5034950;28;20192;-80
2022/08/17 13:29:33;;;;;;;13.27;6.10;;;12.00;85.00;;;;;;5038005;28;20223;-80
2022/08/17 13:32:06;;;;;;;13.30;5.80;;;12.00;84.90;;;;;;5027911;28;20185;-80
2022/08/17 13:34:34;;;;;;;14.07;6.33;;;11.80;84.70;;;;;;5046319;28;20176;-80
2022/08/17 13:37:31;;;;;;;14.63;6.27;;;11.70;85.30;;;;;;5048388;28;20227;-81
2022/08/17 13:40:07;;;;;;;11.43;5.90;;;11.70;85.40;;;;;;5032086;28;20212;-80
2022/08/17 13:42:40;;;;;;;9.27;6.00;;;11.70;85.80;;;;;;5050698;28;20190;-80
2022/08/17 13:45:29;;;;;;;10.17;5.90;;;11.70;85.50;;;;;;5033873;28;20210;-82
2022/08/17 13:48:06;;;;;;;12.37;6.03;;;11.70;85.50;;;;;;5045188;28;20184;-81
2022/08/17 13:50:34;;;;;;;13.30;6.33;;;11.70;85.70;;;;;;5053234;28;20186;-82
2022/08/17 13:53:02;;;;;;;11.53;5.70;;;11.60;85.30;;;;;;5055016;28;20555;-83
2022/08/17 13:55:31;;;;;;;17.37;6.77;;;11.50;85.00;;;;;;5055174;28;20666;-83
2022/08/17 13:57:59;;;;;;;13.87;6.07;;;11.40;85.40;;;;;;5038193;28;20180;-84
2022/08/17 14:00:32;;;;;;;10.90;6.00;;;11.50;85.40;;;;;;5041619;28;20524;-84
2022/08/17 14:03:03;;;;;;;11.50;5.67;;;11.50;85.10;;;;;;5039475;28;20193;-83